sensor_id;sensor_type;location;lat;lon;timestamp;pressure;altitude;pressure_sealevel;temperature;humidity
68859;BME280;55864;49.238;8.092;2023-02-28T00:01:03;100289.44;;;1.01;56.77
68859;BME280;55864;49.238;8.092;2023-02-28T00:03:05;100279.22;;;0.98;57.13
68859;BME280;55864;49.238;8.092;2023-02-28T00:05:08;100290.50;;;0.97;56.71
68859;BME280;55864;49.238;8.092;2023-02-28T00:07:08;100293.00;;;0.98;57.03
68859;BME280;55864;49.238;8.092;2023-02-28T00:09:09;100282.59;;;1.00;56.65
68859;BME280;55864;49.238;8.092;2023-02-28T00:11:11;100285.13;;;1.01;57.26
68859;BME280;55864;49.238;8.092;2023-02-28T00:13:12;100276.66;;;0.98;56.59
68859;BME280;55864;49.238;8.092;2023-02-28T00:15:13;100288.78;;;0.95;57.22
68859;BME280;55864;49.238;8.092;2023-02-28T00:17:13;100283.00;;;0.89;57.09
68859;BME280;55864;49.238;8.092;2023-02-28T00:19:15;100282.13;;;0.90;56.91
68859;BME280;55864;49.238;8.092;2023-02-28T00:21:17;100277.91;;;0.87;57.42
68859;BME280;55864;49.238;8.092;2023-02-28T00:23:18;100284.00;;;0.86;57.36
68859;BME280;55864;49.238;8.092;2023-02-28T00:25:20;100279.72;;;0.85;57.52
68859;BME280;55864;49.238;8.092;2023-02-28T00:27:21;100283.88;;;0.89;56.99
68859;BME280;55864;49.238;8.092;2023-02-28T00:29:22;100277.03;;;0.88;57.08
68859;BME280;55864;49.238;8.092;2023-02-28T00:31:22;100283.09;;;0.87;57.19
68859;BME280;55864;49.238;8.092;2023-02-28T00:33:23;100286.69;;;0.83;57.79
68859;BME280;55864;49.238;8.092;2023-02-28T00:35:25;100278.13;;;0.83;57.91
68859;BME280;55864;49.238;8.092;2023-02-28T00:37:25;100285.16;;;0.79;57.27
68859;BME280;55864;49.238;8.092;2023-02-28T00:39:26;100280.88;;;0.78;57.52
68859;BME280;55864;49.238;8.092;2023-02-28T00:41:27;100285.09;;;0.81;57.97
68859;BME280;55864;49.238;8.092;2023-02-28T00:43:27;100290.13;;;0.84;57.91
68859;BME280;55864;49.238;8.092;2023-02-28T00:45:28;100290.06;;;0.85;57.87
68859;BME280;55864;49.238;8.092;2023-02-28T00:47:28;100290.19;;;0.82;58.31
68859;BME280;55864;49.238;8.092;2023-02-28T00:49:29;100289.34;;;0.82;58.01
68859;BME280;55864;49.238;8.092;2023-02-28T00:51:31;100285.16;;;0.79;58.04
68859;BME280;55864;49.238;8.092;2023-02-28T00:53:31;100291.16;;;0.80;57.99
68859;BME280;55864;49.238;8.092;2023-02-28T00:55:32;100283.38;;;0.80;58.92
68859;BME280;55864;49.238;8.092;2023-02-28T00:57:32;100283.47;;;0.78;58.90
68859;BME280;55864;49.238;8.092;2023-02-28T00:59:33;100281.81;;;0.76;58.71
68859;BME280;55864;49.238;8.092;2023-02-28T01:01:34;100286.97;;;0.77;58.74
68859;BME280;55864;49.238;8.092;2023-02-28T01:03:34;100284.47;;;0.74;58.86
68859;BME280;55864;49.238;8.092;2023-02-28T01:05:35;100280.28;;;0.72;59.27
68859;BME280;55864;49.238;8.092;2023-02-28T01:07:37;100285.47;;;0.72;59.34
68859;BME280;55864;49.238;8.092;2023-02-28T01:09:37;100285.47;;;0.72;59.17
68859;BME280;55864;49.238;8.092;2023-02-28T01:11:39;100281.19;;;0.71;59.38
68859;BME280;55864;49.238;8.092;2023-02-28T01:13:40;100275.16;;;0.70;59.20
68859;BME280;55864;49.238;8.092;2023-02-28T01:15:44;100282.97;;;0.69;59.15
68859;BME280;55864;49.238;8.092;2023-02-28T01:17:46;100285.50;;;0.70;58.99
68859;BME280;55864;49.238;8.092;2023-02-28T01:19:46;100284.72;;;0.68;59.63
68859;BME280;55864;49.238;8.092;2023-02-28T01:21:47;100284.72;;;0.68;59.94
68859;BME280;55864;49.238;8.092;2023-02-28T01:23:49;100286.28;;;0.72;59.54
68859;BME280;55864;49.238;8.092;2023-02-28T01:25:50;100282.03;;;0.71;59.27
68859;BME280;55864;49.238;8.092;2023-02-28T01:27:50;100284.53;;;0.73;59.39
68859;BME280;55864;49.238;8.092;2023-02-28T01:29:51;100288.88;;;0.72;60.11
68859;BME280;55864;49.238;8.092;2023-02-28T01:31:51;100283.75;;;0.71;59.97
68859;BME280;55864;49.238;8.092;2023-02-28T01:33:52;100289.00;;;0.69;59.80
68859;BME280;55864;49.238;8.092;2023-02-28T01:35:57;100285.56;;;0.69;60.25
68859;BME280;55864;49.238;8.092;2023-02-28T01:37:58;100280.41;;;0.69;59.78
68859;BME280;55864;49.238;8.092;2023-02-28T01:40:00;100278.00;;;0.64;60.25
68859;BME280;55864;49.238;8.092;2023-02-28T01:42:01;100281.47;;;0.63;60.35
68859;BME280;55864;49.238;8.092;2023-02-28T01:44:04;100282.41;;;0.62;60.27
68859;BME280;55864;49.238;8.092;2023-02-28T01:46:06;100279.84;;;0.61;60.04
68859;BME280;55864;49.238;8.092;2023-02-28T01:48:08;100277.94;;;0.66;59.94
68859;BME280;55864;49.238;8.092;2023-02-28T01:50:12;100276.25;;;0.65;60.00
68859;BME280;55864;49.238;8.092;2023-02-28T01:52:14;100278.09;;;0.61;60.13
68859;BME280;55864;49.238;8.092;2023-02-28T01:54:18;100276.38;;;0.62;60.66
68859;BME280;55864;49.238;8.092;2023-02-28T01:56:25;100279.75;;;0.64;60.49
68859;BME280;55864;49.238;8.092;2023-02-28T01:58:26;100283.09;;;0.66;60.86
68859;BME280;55864;49.238;8.092;2023-02-28T02:00:28;100279.69;;;0.65;60.25
68859;BME280;55864;49.238;8.092;2023-02-28T02:02:30;100270.50;;;0.58;60.96
68859;BME280;55864;49.238;8.092;2023-02-28T02:04:35;100273.97;;;0.57;60.87
68859;BME280;55864;49.238;8.092;2023-02-28T02:06:40;100268.00;;;0.55;60.82
68859;BME280;55864;49.238;8.092;2023-02-28T02:08:44;100276.69;;;0.54;60.42
68859;BME280;55864;49.238;8.092;2023-02-28T02:10:46;100267.13;;;0.56;61.13
68859;BME280;55864;49.238;8.092;2023-02-28T02:12:59;100274.81;;;0.58;60.35
68859;BME280;55864;49.238;8.092;2023-02-28T02:15:09;100266.41;;;0.53;60.60
68859;BME280;55864;49.238;8.092;2023-02-28T02:17:21;100264.63;;;0.53;61.01
68859;BME280;55864;49.238;8.092;2023-02-28T02:19:36;100255.16;;;0.54;60.72
68859;BME280;55864;49.238;8.092;2023-02-28T02:22:03;100265.41;;;0.55;61.19
68859;BME280;55864;49.238;8.092;2023-02-28T02:27:13;100262.97;;;0.52;61.12
68859;BME280;55864;49.238;8.092;2023-02-28T02:29:33;100259.84;;;0.44;61.27
68859;BME280;55864;49.238;8.092;2023-02-28T02:31:57;100266.81;;;0.42;61.66
68859;BME280;55864;49.238;8.092;2023-02-28T02:34:26;100259.06;;;0.42;61.91
68859;BME280;55864;49.238;8.092;2023-02-28T02:36:35;100258.19;;;0.42;61.60
68859;BME280;55864;49.238;8.092;2023-02-28T02:38:43;100261.84;;;0.38;61.60
68859;BME280;55864;49.238;8.092;2023-02-28T02:40:56;100260.19;;;0.35;61.92
68859;BME280;55864;49.238;8.092;2023-02-28T02:43:02;100264.63;;;0.32;61.92
68859;BME280;55864;49.238;8.092;2023-02-28T02:45:09;100260.56;;;0.26;62.22
68859;BME280;55864;49.238;8.092;2023-02-28T02:47:14;100253.69;;;0.25;62.97
68859;BME280;55864;49.238;8.092;2023-02-28T02:49:19;100258.00;;;0.25;63.01
68859;BME280;55864;49.238;8.092;2023-02-28T02:51:23;100264.94;;;0.24;62.29
68859;BME280;55864;49.238;8.092;2023-02-28T02:53:30;100258.13;;;0.22;62.73
68859;BME280;55864;49.238;8.092;2023-02-28T02:55:37;100264.38;;;0.16;62.30
68859;BME280;55864;49.238;8.092;2023-02-28T02:57:45;100269.59;;;0.15;62.92
68859;BME280;55864;49.238;8.092;2023-02-28T02:59:49;100259.16;;;0.18;62.46
68859;BME280;55864;49.238;8.092;2023-02-28T03:01:56;100265.09;;;0.20;62.68
68859;BME280;55864;49.238;8.092;2023-02-28T03:04:01;100255.69;;;0.19;63.32
68859;BME280;55864;49.238;8.092;2023-02-28T03:06:03;100266.00;;;0.19;62.79
68859;BME280;55864;49.238;8.092;2023-02-28T03:08:07;100261.66;;;0.19;63.04
68859;BME280;55864;49.238;8.092;2023-02-28T03:10:30;100252.25;;;0.18;62.86
68859;BME280;55864;49.238;8.092;2023-02-28T03:12:38;100259.16;;;0.18;62.85
68859;BME280;55864;49.238;8.092;2023-02-28T03:14:50;100263.59;;;0.14;63.34
68859;BME280;55864;49.238;8.092;2023-02-28T03:17:04;100261.91;;;0.13;63.24
68859;BME280;55864;49.238;8.092;2023-02-28T03:19:26;100264.53;;;0.12;63.36
68859;BME280;55864;49.238;8.092;2023-02-28T03:21:34;100258.59;;;0.10;63.17
68859;BME280;55864;49.238;8.092;2023-02-28T03:23:42;100257.88;;;0.06;63.42
68859;BME280;55864;49.238;8.092;2023-02-28T03:25:56;100248.44;;;0.05;63.89
68859;BME280;55864;49.238;8.092;2023-02-28T03:28:03;100256.06;;;0.08;63.27
68859;BME280;55864;49.238;8.092;2023-02-28T03:30:10;100262.06;;;0.09;63.35
68859;BME280;55864;49.238;8.092;2023-02-28T03:32:17;100260.34;;;0.09;63.47
68859;BME280;55864;49.238;8.092;2023-02-28T03:34:23;100257.03;;;0.06;63.54
68859;BME280;55864;49.238;8.092;2023-02-28T03:36:26;100263.22;;;0.02;64.07
68859;BME280;55864;49.238;8.092;2023-02-28T03:38:32;100256.34;;;0.00;63.67
68859;BME280;55864;49.238;8.092;2023-02-28T03:40:37;100258.88;;;0.02;64.09
68859;BME280;55864;49.238;8.092;2023-02-28T03:42:41;100260.34;;;0.09;63.74
68859;BME280;55864;49.238;8.092;2023-02-28T03:44:46;100258.00;;;0.03;63.86
68859;BME280;55864;49.238;8.092;2023-02-28T03:46:52;100261.44;;;0.02;64.06
68859;BME280;55864;49.238;8.092;2023-02-28T03:48:59;100258.78;;;0.05;63.63
68859;BME280;55864;49.238;8.092;2023-02-28T03:51:03;100253.59;;;0.05;64.29
68859;BME280;55864;49.238;8.092;2023-02-28T03:53:10;100253.41;;;0.10;63.93
68859;BME280;55864;49.238;8.092;2023-02-28T03:55:13;100251.69;;;0.10;63.61
68859;BME280;55864;49.238;8.092;2023-02-28T03:57:22;100251.81;;;0.07;63.59
68859;BME280;55864;49.238;8.092;2023-02-28T03:59:28;100254.56;;;0.03;63.79
68859;BME280;55864;49.238;8.092;2023-02-28T04:01:35;100251.38;;;-0.04;64.39
68859;BME280;55864;49.238;8.092;2023-02-28T04:03:36;100251.47;;;-0.07;64.46
68859;BME280;55864;49.238;8.092;2023-02-28T04:05:47;100256.53;;;-0.04;64.18
68859;BME280;55864;49.238;8.092;2023-02-28T04:07:50;100254.13;;;-0.09;64.06
68859;BME280;55864;49.238;8.092;2023-02-28T04:09:51;100249.81;;;-0.08;64.36
68859;BME280;55864;49.238;8.092;2023-02-28T04:11:52;100252.25;;;-0.05;64.17
68859;BME280;55864;49.238;8.092;2023-02-28T04:13:54;100251.41;;;-0.06;64.43
68859;BME280;55864;49.238;8.092;2023-02-28T04:15:55;100260.00;;;-0.05;63.78
68859;BME280;55864;49.238;8.092;2023-02-28T04:17:55;100258.28;;;-0.05;64.12
68859;BME280;55864;49.238;8.092;2023-02-28T04:19:56;100251.41;;;-0.06;64.33
68859;BME280;55864;49.238;8.092;2023-02-28T04:21:56;100254.91;;;-0.07;64.03
68859;BME280;55864;49.238;8.092;2023-02-28T04:23:57;100259.13;;;-0.04;64.44
68859;BME280;55864;49.238;8.092;2023-02-28T04:25:58;100252.25;;;-0.05;63.99
68859;BME280;55864;49.238;8.092;2023-02-28T04:27:59;100254.13;;;-0.09;64.62
68859;BME280;55864;49.238;8.092;2023-02-28T04:30:02;100253.25;;;-0.09;64.71
68859;BME280;55864;49.238;8.092;2023-02-28T04:32:03;100251.41;;;-0.06;64.66
68859;BME280;55864;49.238;8.092;2023-02-28T04:34:06;100246.94;;;-0.01;64.10
68859;BME280;55864;49.238;8.092;2023-02-28T04:36:08;100246.94;;;-0.01;64.49
68859;BME280;55864;49.238;8.092;2023-02-28T04:38:08;100252.97;;;-0.02;64.30
68859;BME280;55864;49.238;8.092;2023-02-28T04:40:15;100255.69;;;-0.05;64.59
68859;BME280;55864;49.238;8.092;2023-02-28T04:42:16;100249.00;;;-0.10;65.02
68859;BME280;55864;49.238;8.092;2023-02-28T04:44:17;100248.22;;;-0.12;64.52
68859;BME280;55864;49.238;8.092;2023-02-28T04:46:19;100248.31;;;-0.15;64.42
68859;BME280;55864;49.238;8.092;2023-02-28T04:48:20;100242.41;;;-0.17;65.11
68859;BME280;55864;49.238;8.092;2023-02-28T04:50:20;100250.91;;;-0.15;64.79
68859;BME280;55864;49.238;8.092;2023-02-28T04:52:21;100247.31;;;-0.11;65.02
68859;BME280;55864;49.238;8.092;2023-02-28T04:54:21;100251.53;;;-0.09;64.98
68859;BME280;55864;49.238;8.092;2023-02-28T04:56:22;100241.16;;;-0.07;64.77
68859;BME280;55864;49.238;8.092;2023-02-28T04:58:23;100252.38;;;-0.08;64.78
68859;BME280;55864;49.238;8.092;2023-02-28T05:00:24;100249.34;;;-0.19;65.00
68859;BME280;55864;49.238;8.092;2023-02-28T05:02:26;100253.66;;;-0.20;65.19
68859;BME280;55864;49.238;8.092;2023-02-28T05:04:26;100258.91;;;-0.21;65.22
68859;BME280;55864;49.238;8.092;2023-02-28T05:06:29;100261.56;;;-0.24;65.40
68859;BME280;55864;49.238;8.092;2023-02-28T05:08:30;100261.41;;;-0.20;65.55
68859;BME280;55864;49.238;8.092;2023-02-28T05:10:30;100254.34;;;-0.15;65.50
68859;BME280;55864;49.238;8.092;2023-02-28T05:12:31;100258.56;;;-0.12;65.11
68859;BME280;55864;49.238;8.092;2023-02-28T05:14:31;100257.53;;;-0.08;65.25
68859;BME280;55864;49.238;8.092;2023-02-28T05:16:32;100259.28;;;-0.09;65.09
68859;BME280;55864;49.238;8.092;2023-02-28T05:18:34;100254.28;;;-0.13;65.35
68859;BME280;55864;49.238;8.092;2023-02-28T05:20:35;100263.06;;;-0.17;65.57
68859;BME280;55864;49.238;8.092;2023-02-28T05:22:35;100262.94;;;-0.14;65.11
68859;BME280;55864;49.238;8.092;2023-02-28T05:24:36;100263.00;;;-0.16;65.14
68859;BME280;55864;49.238;8.092;2023-02-28T05:26:37;100266.50;;;-0.18;65.54
68859;BME280;55864;49.238;8.092;2023-02-28T05:28:38;100266.56;;;-0.20;65.79
68859;BME280;55864;49.238;8.092;2023-02-28T05:30:39;100264.72;;;-0.16;65.45
68859;BME280;55864;49.238;8.092;2023-02-28T05:32:40;100276.72;;;-0.15;65.43
68859;BME280;55864;49.238;8.092;2023-02-28T05:34:42;100273.41;;;-0.19;65.81
68859;BME280;55864;49.238;8.092;2023-02-28T05:36:43;100277.75;;;-0.19;66.01
68859;BME280;55864;49.238;8.092;2023-02-28T05:38:46;100273.19;;;-0.13;65.67
68859;BME280;55864;49.238;8.092;2023-02-28T05:40:47;100263.78;;;-0.14;65.19
68859;BME280;55864;49.238;8.092;2023-02-28T05:42:48;100273.09;;;-0.10;64.88
68859;BME280;55864;49.238;8.092;2023-02-28T05:44:50;100264.38;;;-0.07;65.44
68859;BME280;55864;49.238;8.092;2023-02-28T05:46:50;100279.88;;;-0.07;65.04
68859;BME280;55864;49.238;8.092;2023-02-28T05:48:51;100269.59;;;-0.09;65.17
68859;BME280;55864;49.238;8.092;2023-02-28T05:50:53;100270.53;;;-0.11;65.04
68859;BME280;55864;49.238;8.092;2023-02-28T05:52:53;100277.41;;;-0.10;65.33
68859;BME280;55864;49.238;8.092;2023-02-28T05:54:54;100277.41;;;-0.10;65.49
68859;BME280;55864;49.238;8.092;2023-02-28T05:56:54;100272.06;;;-0.06;65.31
68859;BME280;55864;49.238;8.092;2023-02-28T05:58:55;100271.13;;;-0.03;65.15
68859;BME280;55864;49.238;8.092;2023-02-28T06:00:55;100269.31;;;-0.01;65.36
68859;BME280;55864;49.238;8.092;2023-02-28T06:02:56;100271.03;;;0.00;65.21
68859;BME280;55864;49.238;8.092;2023-02-28T06:04:56;100268.38;;;0.02;64.69
68859;BME280;55864;49.238;8.092;2023-02-28T06:06:58;100272.69;;;0.01;65.01
68859;BME280;55864;49.238;8.092;2023-02-28T06:08:59;100273.75;;;-0.05;64.86
68859;BME280;55864;49.238;8.092;2023-02-28T06:11:02;100275.56;;;-0.07;65.28
68859;BME280;55864;49.238;8.092;2023-02-28T06:13:04;100278.25;;;-0.10;65.12
68859;BME280;55864;49.238;8.092;2023-02-28T06:15:05;100277.34;;;-0.09;65.46
68859;BME280;55864;49.238;8.092;2023-02-28T06:17:06;100285.16;;;-0.10;65.31
68859;BME280;55864;49.238;8.092;2023-02-28T06:19:06;100279.88;;;-0.07;65.36
68859;BME280;55864;49.238;8.092;2023-02-28T06:21:07;100288.47;;;-0.07;65.32
68859;BME280;55864;49.238;8.092;2023-02-28T06:23:09;100285.09;;;-0.09;65.23
68859;BME280;55864;49.238;8.092;2023-02-28T06:25:10;100281.78;;;-0.12;65.30
68859;BME280;55864;49.238;8.092;2023-02-28T06:27:10;100282.66;;;-0.13;65.53
68859;BME280;55864;49.238;8.092;2023-02-28T06:29:11;100286.94;;;-0.12;65.71
68859;BME280;55864;49.238;8.092;2023-02-28T06:31:13;100286.94;;;-0.12;65.86
68859;BME280;55864;49.238;8.092;2023-02-28T06:33:14;100298.94;;;-0.11;65.79
68859;BME280;55864;49.238;8.092;2023-02-28T06:35:14;100293.06;;;-0.15;65.74
68859;BME280;55864;49.238;8.092;2023-02-28T06:37:15;100295.06;;;-0.23;65.74
68859;BME280;55864;49.238;8.092;2023-02-28T06:39:17;100295.97;;;-0.24;65.80
68859;BME280;55864;49.238;8.092;2023-02-28T06:41:17;100297.56;;;-0.20;65.58
68859;BME280;55864;49.238;8.092;2023-02-28T06:43:18;100300.97;;;-0.19;66.10
68859;BME280;55864;49.238;8.092;2023-02-28T06:45:19;100294.97;;;-0.20;65.74
68859;BME280;55864;49.238;8.092;2023-02-28T06:47:19;100299.22;;;-0.19;66.29
68859;BME280;55864;49.238;8.092;2023-02-28T06:49:20;100296.63;;;-0.17;65.84
68859;BME280;55864;49.238;8.092;2023-02-28T06:51:20;100292.22;;;-0.15;65.91
68859;BME280;55864;49.238;8.092;2023-02-28T06:53:21;100301.72;;;-0.16;65.83
68859;BME280;55864;49.238;8.092;2023-02-28T06:55:23;100300.88;;;-0.16;65.67
68859;BME280;55864;49.238;8.092;2023-02-28T06:57:23;100309.34;;;-0.13;65.78
68859;BME280;55864;49.238;8.092;2023-02-28T06:59:24;100306.69;;;-0.11;66.04
68859;BME280;55864;49.238;8.092;2023-02-28T07:01:24;100308.44;;;-0.12;65.98
68859;BME280;55864;49.238;8.092;2023-02-28T07:03:25;100310.97;;;-0.10;65.54
68859;BME280;55864;49.238;8.092;2023-02-28T07:05:25;100306.53;;;-0.07;65.74
68859;BME280;55864;49.238;8.092;2023-02-28T07:07:26;100314.94;;;-0.02;65.64
68859;BME280;55864;49.238;8.092;2023-02-28T07:09:26;100312.38;;;-0.02;65.33
68859;BME280;55864;49.238;8.092;2023-02-28T07:11:28;100312.44;;;-0.03;65.51
68859;BME280;55864;49.238;8.092;2023-02-28T07:13:29;100320.19;;;-0.03;65.65
68859;BME280;55864;49.238;8.092;2023-02-28T07:15:30;100324.47;;;-0.02;65.37
68859;BME280;55864;49.238;8.092;2023-02-28T07:17:30;100329.38;;;0.04;65.09
68859;BME280;55864;49.238;8.092;2023-02-28T07:19:31;100329.34;;;0.06;65.04
68859;BME280;55864;49.238;8.092;2023-02-28T07:21:31;100328.50;;;0.05;64.90
68859;BME280;55864;49.238;8.092;2023-02-28T07:23:32;100331.94;;;0.06;65.21
68859;BME280;55864;49.238;8.092;2023-02-28T07:25:33;100333.59;;;0.07;65.22
68859;BME280;55864;49.238;8.092;2023-02-28T07:27:34;100333.47;;;0.10;65.19
68859;BME280;55864;49.238;8.092;2023-02-28T07:29:35;100333.47;;;0.10;64.73
68859;BME280;55864;49.238;8.092;2023-02-28T07:31:35;100335.31;;;0.08;65.68
68859;BME280;55864;49.238;8.092;2023-02-28T07:33:36;100338.63;;;0.10;65.43
68859;BME280;55864;49.238;8.092;2023-02-28T07:35:37;100332.59;;;0.11;65.23
68859;BME280;55864;49.238;8.092;2023-02-28T07:37:37;100330.00;;;0.11;65.22
68859;BME280;55864;49.238;8.092;2023-02-28T07:39:38;100330.88;;;0.11;65.27
68859;BME280;55864;49.238;8.092;2023-02-28T07:41:39;100336.81;;;0.13;65.02
68859;BME280;55864;49.238;8.092;2023-02-28T07:43:40;100329.88;;;0.14;64.74
68859;BME280;55864;49.238;8.092;2023-02-28T07:45:41;100323.78;;;0.16;64.84
68859;BME280;55864;49.238;8.092;2023-02-28T07:47:42;100327.38;;;0.12;64.82
68859;BME280;55864;49.238;8.092;2023-02-28T07:49:43;100325.56;;;0.14;64.75
68859;BME280;55864;49.238;8.092;2023-02-28T07:51:43;100328.28;;;0.11;64.36
68859;BME280;55864;49.238;8.092;2023-02-28T07:53:44;100325.78;;;0.08;64.96
68859;BME280;55864;49.238;8.092;2023-02-28T07:55:44;100328.38;;;0.08;65.24
68859;BME280;55864;49.238;8.092;2023-02-28T07:57:45;100337.81;;;0.09;65.17
68859;BME280;55864;49.238;8.092;2023-02-28T07:59:47;100339.44;;;0.12;65.21
68859;BME280;55864;49.238;8.092;2023-02-28T08:01:47;100338.63;;;0.11;65.09
68859;BME280;55864;49.238;8.092;2023-02-28T08:03:48;100338.69;;;0.08;65.47
68859;BME280;55864;49.238;8.092;2023-02-28T08:05:49;100341.13;;;0.13;65.05
68859;BME280;55864;49.238;8.092;2023-02-28T08:07:49;100340.94;;;0.17;65.37
68859;BME280;55864;49.238;8.092;2023-02-28T08:09:50;100344.16;;;0.24;65.39
68859;BME280;55864;49.238;8.092;2023-02-28T08:11:50;100344.00;;;0.28;65.35
68859;BME280;55864;49.238;8.092;2023-02-28T08:13:51;100344.66;;;0.33;64.53
68859;BME280;55864;49.238;8.092;2023-02-28T08:15:53;100341.97;;;0.36;64.82
68859;BME280;55864;49.238;8.092;2023-02-28T08:17:54;100341.97;;;0.36;63.97
68859;BME280;55864;49.238;8.092;2023-02-28T08:19:54;100349.63;;;0.39;64.57
68859;BME280;55864;49.238;8.092;2023-02-28T08:21:55;100344.38;;;0.41;64.41
68859;BME280;55864;49.238;8.092;2023-02-28T08:23:56;100347.88;;;0.40;64.44
68859;BME280;55864;49.238;8.092;2023-02-28T08:25:57;100349.56;;;0.41;64.67
68859;BME280;55864;49.238;8.092;2023-02-28T08:27:57;100355.56;;;0.41;64.39
68859;BME280;55864;49.238;8.092;2023-02-28T08:29:58;100350.41;;;0.41;65.14
68859;BME280;55864;49.238;8.092;2023-02-28T08:31:59;100343.38;;;0.45;64.99
68859;BME280;55864;49.238;8.092;2023-02-28T08:34:00;100355.34;;;0.47;64.51
68859;BME280;55864;49.238;8.092;2023-02-28T08:36:06;100346.56;;;0.51;64.59
68859;BME280;55864;49.238;8.092;2023-02-28T08:38:06;100344.66;;;0.56;64.78
68859;BME280;55864;49.238;8.092;2023-02-28T08:40:08;100352.22;;;0.61;64.76
68859;BME280;55864;49.238;8.092;2023-02-28T08:42:09;100352.97;;;0.64;64.32
68859;BME280;55864;49.238;8.092;2023-02-28T08:44:09;100353.56;;;0.71;64.38
68859;BME280;55864;49.238;8.092;2023-02-28T08:46:11;100349.03;;;0.76;64.16
68859;BME280;55864;49.238;8.092;2023-02-28T08:48:13;100358.50;;;0.77;63.60
68859;BME280;55864;49.238;8.092;2023-02-28T08:50:14;100354.19;;;0.77;63.72
68859;BME280;55864;49.238;8.092;2023-02-28T08:52:14;100353.31;;;0.77;63.72
68859;BME280;55864;49.238;8.092;2023-02-28T08:54:15;100349.81;;;0.78;63.72
68859;BME280;55864;49.238;8.092;2023-02-28T08:56:16;100361.03;;;0.78;63.69
68859;BME280;55864;49.238;8.092;2023-02-28T08:58:16;100349.00;;;0.77;63.18
68859;BME280;55864;49.238;8.092;2023-02-28T09:00:18;100352.38;;;0.79;63.46
68859;BME280;55864;49.238;8.092;2023-02-28T09:02:19;100355.78;;;0.80;63.55
68859;BME280;55864;49.238;8.092;2023-02-28T09:04:20;100351.47;;;0.80;63.26
68859;BME280;55864;49.238;8.092;2023-02-28T09:06:23;100355.63;;;0.84;63.19
68859;BME280;55864;49.238;8.092;2023-02-28T09:08:24;100352.00;;;0.88;63.51
68859;BME280;55864;49.238;8.092;2023-02-28T09:10:26;100343.25;;;0.92;63.40
68859;BME280;55864;49.238;8.092;2023-02-28T09:12:27;100351.00;;;0.92;63.28
68859;BME280;55864;49.238;8.092;2023-02-28T09:14:32;100342.22;;;0.97;63.49
68859;BME280;55864;49.238;8.092;2023-02-28T09:16:33;100342.94;;;1.00;63.04
68859;BME280;55864;49.238;8.092;2023-02-28T09:18:34;100347.13;;;1.03;62.87
68859;BME280;55864;49.238;8.092;2023-02-28T09:20:38;100342.72;;;1.05;63.67
68859;BME280;55864;49.238;8.092;2023-02-28T09:22:39;100343.59;;;1.05;63.12
68859;BME280;55864;49.238;8.092;2023-02-28T09:24:40;100342.72;;;1.05;63.24
68859;BME280;55864;49.238;8.092;2023-02-28T09:26:41;100343.50;;;1.07;63.02
68859;BME280;55864;49.238;8.092;2023-02-28T09:28:41;100338.28;;;1.08;63.05
68859;BME280;55864;49.238;8.092;2023-02-28T09:30:42;100342.63;;;1.08;63.18
68859;BME280;55864;49.238;8.092;2023-02-28T09:32:44;100341.72;;;1.09;62.80
68859;BME280;55864;49.238;8.092;2023-02-28T09:34:44;100345.16;;;1.09;63.42
68859;BME280;55864;49.238;8.092;2023-02-28T09:36:46;100340.69;;;1.13;63.72
68859;BME280;55864;49.238;8.092;2023-02-28T09:38:47;100341.28;;;1.19;63.14
68859;BME280;55864;49.238;8.092;2023-02-28T09:40:51;100343.75;;;1.22;62.62
68859;BME280;55864;49.238;8.092;2023-02-28T09:42:55;100339.22;;;1.27;62.13
68859;BME280;55864;49.238;8.092;2023-02-28T09:44:58;100332.94;;;1.33;61.36
68859;BME280;55864;49.238;8.092;2023-02-28T09:47:01;100334.41;;;1.40;60.73
68859;BME280;55864;49.238;8.092;2023-02-28T09:49:11;100323.72;;;1.47;60.06
68859;BME280;55864;49.238;8.092;2023-02-28T09:51:27;100326.00;;;1.55;59.88
68859;BME280;55864;49.238;8.092;2023-02-28T09:53:31;100327.34;;;1.63;59.60
68859;BME280;55864;49.238;8.092;2023-02-28T09:55:37;100334.84;;;1.69;59.48
68859;BME280;55864;49.238;8.092;2023-02-28T09:57:41;100329.50;;;1.74;58.90
68859;BME280;55864;49.238;8.092;2023-02-28T09:59:52;100329.19;;;1.80;59.11
68859;BME280;55864;49.238;8.092;2023-02-28T10:02:02;100328.81;;;1.89;59.75
68859;BME280;55864;49.238;8.092;2023-02-28T10:06:29;100316.88;;;2.05;58.14
68859;BME280;55864;49.238;8.092;2023-02-28T10:08:37;100336.41;;;2.12;58.56
68859;BME280;55864;49.238;8.092;2023-02-28T10:10:42;100329.13;;;2.20;58.04
68859;BME280;55864;49.238;8.092;2023-02-28T10:12:44;100323.25;;;2.35;57.67
68859;BME280;55864;49.238;8.092;2023-02-28T10:14:47;100323.34;;;2.52;57.03
68859;BME280;55864;49.238;8.092;2023-02-28T10:16:53;100329.88;;;2.61;56.32
68859;BME280;55864;49.238;8.092;2023-02-28T10:18:58;100329.50;;;2.68;56.00
68859;BME280;55864;49.238;8.092;2023-02-28T10:21:00;100322.91;;;2.80;55.93
68859;BME280;55864;49.238;8.092;2023-02-28T10:23:04;100328.56;;;2.88;56.01
68859;BME280;55864;49.238;8.092;2023-02-28T10:25:18;100326.59;;;2.93;55.51
68859;BME280;55864;49.238;8.092;2023-02-28T10:27:20;100334.63;;;3.06;55.91
68859;BME280;55864;49.238;8.092;2023-02-28T10:29:21;100338.59;;;3.13;55.19
68859;BME280;55864;49.238;8.092;2023-02-28T10:31:21;100326.38;;;3.15;55.17
68859;BME280;55864;49.238;8.092;2023-02-28T10:33:24;100324.28;;;3.23;55.03
68859;BME280;55864;49.238;8.092;2023-02-28T10:35:26;100327.78;;;3.22;54.31
68859;BME280;55864;49.238;8.092;2023-02-28T10:37:39;100322.66;;;3.20;53.74
68859;BME280;55864;49.238;8.092;2023-02-28T10:39:54;100323.59;;;3.19;54.42
68859;BME280;55864;49.238;8.092;2023-02-28T10:42:43;100321.66;;;3.23;52.72
68859;BME280;55864;49.238;8.092;2023-02-28T10:45:15;100325.56;;;3.31;52.92
68859;BME280;55864;49.238;8.092;2023-02-28T10:47:27;100311.22;;;3.41;52.01
68859;BME280;55864;49.238;8.092;2023-02-28T10:49:29;100316.03;;;3.49;52.29
68859;BME280;55864;49.238;8.092;2023-02-28T10:51:41;100320.69;;;3.59;51.68
68859;BME280;55864;49.238;8.092;2023-02-28T10:53:48;100318.31;;;3.55;51.65
68859;BME280;55864;49.238;8.092;2023-02-28T10:55:59;100323.03;;;3.47;51.37